Time;durP1;ratioP1;P1;durP2;ratioP2;P2;SDS_P1;SDS_P2;PMS_P1;PMS_P2;Temp;Humidity;BMP_temperature;BMP_pressure;BME280_temperature;BME280_humidity;BME280_pressure;Samples;Min_cycle;Max_cycle;Signal;HPM_P1;HPM_P2
2023/02/04 00:02:07;;;;;;;;;;;;;;;27.92;21.18;100603.22;5065198;28;1143;-30
2023/02/04 00:04:33;;;;;;;;;;;;;;;27.37;22.06;100621.50;5077928;28;1914;-30
2023/02/04 00:06:58;;;;;;;;;;;;;;;27.73;21.59;100617.19;5064585;28;1158;-31
2023/02/04 00:09:23;;;;;;;;;;;;;;;27.86;21.50;100619.19;5070211;28;1103;-29
2023/02/04 00:11:49;;;;;;;;;;;;;;;27.57;21.35;100607.41;5058188;28;1091;-32
2023/02/04 00:14:14;;;;;;;;;;;;;;;26.67;22.81;100619.03;5066334;28;1121;-34
2023/02/04 00:16:39;;;;;;;;;;;;;;;28.31;20.88;100612.75;5077236;28;984;-29
2023/02/04 00:19:05;;;;;;;;;;;;;;;28.57;20.35;100614.06;5078111;28;1221;-33
2023/02/04 00:21:30;;;;;;;;;;;;;;;28.41;20.55;100606.22;5064605;28;1210;-34
2023/02/04 00:23:55;;;;;;;;;;;;;;;27.65;21.00;100600.19;5070058;28;1967;-33
2023/02/04 00:26:20;;;;;;;;;;;;;;;27.65;21.66;100603.75;5057795;28;1063;-30
2023/02/04 00:28:46;;;;;;;;;;;;;;;27.82;21.16;100599.00;5056509;28;892;-31
2023/02/04 00:31:11;;;;;;;;;;;;;;;27.48;21.93;100595.03;5072088;28;1088;-35
2023/02/04 00:33:36;;;;;;;;;;;;;;;27.76;21.41;100591.63;5077679;28;1036;-32
2023/02/04 00:36:02;;;;;;;;;;;;;;;27.46;21.83;100589.81;5063750;28;1186;-31
2023/02/04 00:38:27;;;;;;;;;;;;;;;27.16;22.28;100587.16;5070501;28;1197;-32
2023/02/04 00:40:52;;;;;;;;;;;;;;;27.29;21.84;100583.81;5056956;28;1012;-33
2023/02/04 00:43:17;;;;;;;;;;;;;;;27.38;22.15;100579.97;5064828;28;1968;-31
2023/02/04 00:45:44;;;;;;;;;;;;;;;27.53;21.91;100581.78;5076843;28;1174;-33
2023/02/04 00:48:09;;;;;;;;;;;;;;;27.31;21.90;100573.63;5064855;28;1222;-33
2023/02/04 00:50:38;;;;;;;;;;;;;;;27.14;22.14;100568.44;5064260;28;1097;-32
2023/02/04 00:53:04;;;;;;;;;;;;;;;28.66;20.39;100560.59;5076086;28;862;-32
2023/02/04 00:55:29;;;;;;;;;;;;;;;28.88;20.14;100570.53;5076702;28;1070;-31
2023/02/04 00:57:54;;;;;;;;;;;;;;;28.99;19.91;100563.72;5076813;28;1331;-33
2023/02/04 01:00:20;;;;;;;;;;;;;;;28.43;20.28;100556.28;5063807;28;1171;-29
2023/02/04 01:02:45;;;;;;;;;;;;;;;27.49;21.38;100548.91;5064167;28;1960;-32
2023/02/04 01:05:10;;;;;;;;;;;;;;;27.85;21.36;100530.19;5076720;28;1170;-31
2023/02/04 01:07:35;;;;;;;;;;;;;;;27.93;20.75;100540.84;5076899;28;1152;-33
2023/02/04 01:10:01;;;;;;;;;;;;;;;26.71;22.86;100539.38;5063808;28;1118;-30
2023/02/04 01:12:27;;;;;;;;;;;;;;;28.02;21.29;100538.03;5063431;28;1028;-35
2023/02/04 01:14:53;;;;;;;;;;;;;;;28.06;21.15;100529.31;5077142;28;1012;-33
2023/02/04 01:17:18;;;;;;;;;;;;;;;28.30;21.22;100531.78;5056873;28;1035;-32
2023/02/04 01:19:44;;;;;;;;;;;;;;;28.79;20.38;100529.25;5056937;28;1080;-30
2023/02/04 01:22:09;;;;;;;;;;;;;;;27.61;22.07;100524.94;5056959;28;993;-34
2023/02/04 01:24:34;;;;;;;;;;;;;;;27.59;21.65;100526.97;5056768;28;1973;-30
2023/02/04 01:27:00;;;;;;;;;;;;;;;26.52;23.26;100517.34;5075934;28;1175;-31
2023/02/04 01:29:25;;;;;;;;;;;;;;;27.79;21.93;100506.63;5076279;28;1058;-31
2023/02/04 01:31:50;;;;;;;;;;;;;;;27.67;21.25;100522.50;5063513;28;1139;-35
2023/02/04 01:34:15;;;;;;;;;;;;;;;27.38;22.37;100519.69;5076380;28;1043;-31
2023/02/04 01:36:41;;;;;;;;;;;;;;;28.01;21.59;100512.84;5076387;28;1092;-30
2023/02/04 01:39:06;;;;;;;;;;;;;;;27.48;21.92;100509.41;5076526;28;1056;-32
2023/02/04 01:41:32;;;;;;;;;;;;;;;27.55;22.25;100506.78;5057300;28;1055;-29
2023/02/04 01:43:57;;;;;;;;;;;;;;;28.18;21.18;100501.75;5056550;28;1955;-29
2023/02/04 01:46:23;;;;;;;;;;;;;;;27.56;22.20;100502.22;5040483;28;1083;-29
2023/02/04 01:48:48;;;;;;;;;;;;;;;27.42;22.24;100493.97;5046995;28;1004;-32
2023/02/04 01:51:14;;;;;;;;;;;;;;;27.59;21.91;100493.75;5069853;28;1125;-31
2023/02/04 01:53:40;;;;;;;;;;;;;;;27.68;21.73;100486.31;5046541;28;884;-34
2023/02/04 01:56:10;;;;;;;;;;;;;;;27.71;21.63;100492.22;5044234;28;1024;-31
2023/02/04 01:58:36;;;;;;;;;;;;;;;26.85;22.63;100486.44;5058534;28;1234;-31
2023/02/04 02:01:01;;;;;;;;;;;;;;;28.68;20.61;100487.31;5076054;28;1044;-31
2023/02/04 02:03:26;;;;;;;;;;;;;;;29.02;20.33;100484.78;5058047;28;1977;-30
2023/02/04 02:05:52;;;;;;;;;;;;;;;27.89;21.08;100480.13;5062921;28;1131;-29
2023/02/04 02:08:17;;;;;;;;;;;;;;;27.67;21.46;100484.66;5064319;28;1063;-31
2023/02/04 02:10:43;;;;;;;;;;;;;;;28.35;21.11;100477.97;5055961;28;1033;-32
2023/02/04 02:13:09;;;;;;;;;;;;;;;27.98;21.65;100473.53;5050615;28;1180;-36
2023/02/04 02:15:35;;;;;;;;;;;;;;;28.32;21.10;100472.94;5057431;28;1147;-34
2023/02/04 02:18:00;;;;;;;;;;;;;;;28.77;20.67;100472.59;5050565;28;1030;-31
2023/02/04 02:20:26;;;;;;;;;;;;;;;27.69;22.17;100464.56;5044617;28;1188;-35
2023/02/04 02:23:10;;;;;;;;;;;;;;;27.70;21.76;100459.97;5058741;28;1899;-31
2023/02/04 02:25:36;;;;;;;;;;;;;;;26.60;23.27;100459.75;5064738;28;1187;-31
2023/02/04 02:28:01;;;;;;;;;;;;;;;28.12;21.68;100452.00;5062641;28;1198;-34
2023/02/04 02:30:28;;;;;;;;;;;;;;;28.71;21.01;100454.47;5057606;28;881;-33
2023/02/04 02:32:53;;;;;;;;;;;;;;;28.67;20.89;100442.34;5075691;28;1008;-31
2023/02/04 02:35:18;;;;;;;;;;;;;;;28.96;20.48;100451.22;5067553;28;1091;-34
2023/02/04 02:37:43;;;;;;;;;;;;;;;27.91;21.56;100445.59;5068935;28;1143;-34
2023/02/04 02:40:09;;;;;;;;;;;;;;;27.85;21.56;100435.56;5064261;28;1167;-31
2023/02/04 02:42:34;;;;;;;;;;;;;;;26.67;23.37;100440.97;5055371;28;1973;-32
2023/02/04 02:45:00;;;;;;;;;;;;;;;28.30;21.52;100432.56;5067880;28;1159;-34
2023/02/04 02:47:25;;;;;;;;;;;;;;;28.88;20.63;100427.84;5057178;28;1418;-33
2023/02/04 02:49:52;;;;;;;;;;;;;;;28.98;20.61;100419.38;5075507;28;1189;-31
2023/02/04 02:52:17;;;;;;;;;;;;;;;28.71;20.67;100411.16;5063313;28;1234;-34
2023/02/04 02:54:43;;;;;;;;;;;;;;;27.33;22.49;100408.69;5059669;28;886;-33
2023/02/04 02:57:12;;;;;;;;;;;;;;;27.75;22.33;100404.31;5072883;28;1110;-32
2023/02/04 02:59:37;;;;;;;;;;;;;;;28.57;20.92;100407.53;5059979;28;1081;-31
2023/02/04 03:02:04;;;;;;;;;;;;;;;28.68;20.91;100396.13;5072883;28;1139;-31
2023/02/04 03:04:30;;;;;;;;;;;;;;;28.97;20.60;100390.63;5059087;28;1969;-30
2023/02/04 03:06:56;;;;;;;;;;;;;;;28.16;21.36;100387.53;5054686;28;914;-34
2023/02/04 03:09:21;;;;;;;;;;;;;;;27.81;21.86;100383.78;5067865;28;1207;-31
2023/02/04 03:11:47;;;;;;;;;;;;;;;27.08;22.93;100390.16;5046920;28;1324;-33
2023/02/04 03:14:12;;;;;;;;;;;;;;;27.82;22.19;100380.06;5059541;28;1005;-30
2023/02/04 03:16:39;;;;;;;;;;;;;;;28.59;21.18;100386.53;5055907;28;989;-33
2023/02/04 03:19:04;;;;;;;;;;;;;;;28.72;20.92;100388.47;5070702;28;942;-30
2023/02/04 03:21:29;;;;;;;;;;;;;;;29.00;20.62;100382.09;5059144;28;1079;-31
2023/02/04 03:23:55;;;;;;;;;;;;;;;27.85;21.49;100382.34;5067299;28;1897;-31
2023/02/04 03:26:24;;;;;;;;;;;;;;;26.97;22.50;100389.63;5061377;28;1214;-31
2023/02/04 03:28:49;;;;;;;;;;;;;;;28.50;21.30;100390.44;5070428;28;1078;-32
2023/02/04 03:31:14;;;;;;;;;;;;;;;28.31;21.34;100387.41;5073979;28;830;-35
2023/02/04 03:33:41;;;;;;;;;;;;;;;28.63;21.16;100386.97;5070652;28;1102;-32
2023/02/04 03:36:07;;;;;;;;;;;;;;;28.54;20.88;100379.03;5072357;28;1111;-33
2023/02/04 03:38:33;;;;;;;;;;;;;;;27.83;22.03;100381.72;5067693;28;1107;-32
2023/02/04 03:40:58;;;;;;;;;;;;;;;27.63;22.15;100373.41;5076757;28;1024;-31
2023/02/04 03:43:23;;;;;;;;;;;;;;;26.90;22.97;100372.50;5049454;28;1905;-33
2023/02/04 03:45:49;;;;;;;;;;;;;;;28.54;21.02;100380.91;5078561;28;1090;-30
2023/02/04 03:48:14;;;;;;;;;;;;;;;28.64;20.90;100373.25;5070325;28;1051;-30
2023/02/04 03:50:39;;;;;;;;;;;;;;;29.01;20.57;100372.13;5059024;28;1083;-34
2023/02/04 03:53:05;;;;;;;;;;;;;;;28.17;20.88;100362.16;5059579;28;1191;-30
2023/02/04 03:55:31;;;;;;;;;;;;;;;27.10;22.68;100355.72;5058213;28;898;-31
2023/02/04 03:57:57;;;;;;;;;;;;;;;28.39;21.38;100353.97;5064078;28;1270;-32
2023/02/04 04:00:22;;;;;;;;;;;;;;;28.37;21.26;100351.47;5078236;28;1163;-31
2023/02/04 04:02:47;;;;;;;;;;;;;;;28.62;21.08;100344.69;5078158;28;1906;-33
2023/02/04 04:05:13;;;;;;;;;;;;;;;28.89;20.63;100340.19;5078139;28;1043;-32
2023/02/04 04:07:38;;;;;;;;;;;;;;;27.83;21.89;100330.34;5071712;28;961;-36
2023/02/04 04:10:03;;;;;;;;;;;;;;;27.79;22.11;100323.69;5071966;28;1118;-30
2023/02/04 04:12:29;;;;;;;;;;;;;;;26.38;23.53;100302.41;5040750;28;1085;-33
2023/02/04 04:14:54;;;;;;;;;;;;;;;28.33;21.42;100305.06;5070475;28;1104;-32
2023/02/04 04:17:19;;;;;;;;;;;;;;;27.68;20.20;100303.44;5069703;28;1028;-32
2023/02/04 04:19:44;;;;;;;;;;;;;;;23.65;19.62;100292.38;5072204;28;975;-31
2023/02/04 04:22:10;;;;;;;;;;;;;;;23.02;20.49;100282.16;5077790;28;1121;-28
2023/02/04 04:24:36;;;;;;;;;;;;;;;26.03;20.33;100293.03;5066037;28;1967;-30
2023/02/04 04:27:01;;;;;;;;;;;;;;;26.59;20.66;100282.72;5062622;28;1111;-32
2023/02/04 04:29:26;;;;;;;;;;;;;;;26.63;20.62;100272.38;5077534;28;1115;-30
2023/02/04 04:31:51;;;;;;;;;;;;;;;25.58;21.72;100273.28;5064864;28;1166;-31
2023/02/04 04:34:17;;;;;;;;;;;;;;;25.25;22.06;100242.97;5077772;28;1076;-34
2023/02/04 04:36:42;;;;;;;;;;;;;;;25.26;22.36;100262.63;5059657;28;1182;-29
2023/02/04 04:39:07;;;;;;;;;;;;;;;25.15;22.76;100266.63;5057563;28;1036;-29
2023/02/04 04:41:32;;;;;;;;;;;;;;;25.04;22.82;100266.03;5075343;28;1132;-31
2023/02/04 04:43:58;;;;;;;;;;;;;;;25.01;23.12;100263.69;5077636;28;1902;-29
2023/02/04 04:46:23;;;;;;;;;;;;;;;25.60;21.75;100266.69;5072551;28;1063;-30
2023/02/04 04:48:48;;;;;;;;;;;;;;;24.41;19.74;100266.06;5062493;28;1112;-31
2023/02/04 04:51:14;;;;;;;;;;;;;;;23.73;19.70;100264.66;5069599;28;1085;-31
2023/02/04 04:53:39;;;;;;;;;;;;;;;23.87;21.50;100256.88;5065486;28;1067;-30
2023/02/04 04:56:04;;;;;;;;;;;;;;;23.83;19.22;100246.50;5073773;28;1386;-29
2023/02/04 04:58:30;;;;;;;;;;;;;;;23.03;21.61;100243.56;5073554;28;2002;-29
2023/02/04 05:00:55;;;;;;;;;;;;;;;23.05;20.15;100240.72;5076916;28;1159;-33
2023/02/04 05:03:20;;;;;;;;;;;;;;;22.85;20.07;100241.91;5069558;28;1909;-32
2023/02/04 05:05:45;;;;;;;;;;;;;;;22.77;20.94;100241.91;5062947;28;917;-32
2023/02/04 05:08:15;;;;;;;;;;;;;;;23.05;22.28;100212.06;5077204;28;1063;-30
2023/02/04 05:10:41;;;;;;;;;;;;;;;22.40;21.77;100230.56;5076998;28;1083;-26
2023/02/04 05:13:06;;;;;;;;;;;;;;;21.98;22.07;100233.13;5077122;28;1114;-28
2023/02/04 05:15:31;;;;;;;;;;;;;;;22.03;22.90;100232.63;5076073;28;1104;-29
2023/02/04 05:17:57;;;;;;;;;;;;;;;21.04;22.92;100234.50;5076520;28;1087;-29
2023/02/04 05:20:22;;;;;;;;;;;;;;;22.51;23.90;100235.63;5076963;28;1134;-27
2023/02/04 05:22:48;;;;;;;;;;;;;;;24.06;21.59;100234.13;5076732;28;1902;-26
2023/02/04 05:25:15;;;;;;;;;;;;;;;24.40;21.01;100232.16;5077059;28;1139;-30
2023/02/04 05:27:40;;;;;;;;;;;;;;;24.58;20.79;100229.19;5076933;28;1044;-29
2023/02/04 05:30:06;;;;;;;;;;;;;;;24.53;20.83;100228.88;5065799;28;1655;-28
2023/02/04 05:32:31;;;;;;;;;;;;;;;24.65;20.87;100230.16;5068680;28;1095;-29
2023/02/04 05:34:56;;;;;;;;;;;;;;;24.81;20.66;100229.19;5076550;28;1075;-27
2023/02/04 05:37:22;;;;;;;;;;;;;;;25.00;20.24;100226.22;5076844;28;1206;-28
2023/02/04 05:39:47;;;;;;;;;;;;;;;25.02;19.94;100219.63;5072028;28;1154;-26
2023/02/04 05:42:12;;;;;;;;;;;;;;;24.60;20.15;100219.09;5067134;28;1215;-28
2023/02/04 05:44:38;;;;;;;;;;;;;;;24.36;20.67;100222.78;5073129;28;1894;-28
2023/02/04 05:47:03;;;;;;;;;;;;;;;24.44;20.58;100220.88;5075955;28;1492;-24
2023/02/04 05:49:28;;;;;;;;;;;;;;;24.53;20.69;100221.66;5076316;28;1060;-24
2023/02/04 05:51:53;;;;;;;;;;;;;;;24.66;20.47;100215.69;5071528;28;1214;-29
2023/02/04 05:54:19;;;;;;;;;;;;;;;24.78;20.36;100217.94;5074652;28;1280;-26
2023/02/04 05:56:47;;;;;;;;;;;;;;;24.88;20.39;100217.69;5076324;28;1105;-28
2023/02/04 05:59:12;;;;;;;;;;;;;;;25.01;20.14;100222.50;5075920;28;1122;-25
2023/02/04 06:01:38;;;;;;;;;;;;;;;24.94;20.19;100212.47;5070668;28;1567;-25
2023/02/04 06:04:03;;;;;;;;;;;;;;;23.71;20.86;100215.63;5064930;28;1909;-24
2023/02/04 06:06:28;;;;;;;;;;;;;;;23.23;22.06;100211.88;5068269;28;2364;-28
2023/02/04 06:08:54;;;;;;;;;;;;;;;25.19;20.10;100214.94;5076457;28;945;-25
2023/02/04 06:11:19;;;;;;;;;;;;;;;23.31;21.87;100215.53;5075918;28;1528;-28
2023/02/04 06:13:44;;;;;;;;;;;;;;;22.94;22.54;100215.09;5075788;28;1154;-26
2023/02/04 06:16:09;;;;;;;;;;;;;;;24.81;21.13;100222.97;5076224;28;1074;-25
2023/02/04 06:18:35;;;;;;;;;;;;;;;22.98;22.12;100214.56;5075791;28;1211;-24
2023/02/04 06:21:03;;;;;;;;;;;;;;;22.92;22.38;100222.44;5075388;28;1056;-24
2023/02/04 06:23:28;;;;;;;;;;;;;;;23.97;21.10;100217.22;5076047;28;1956;-27
2023/02/04 06:25:54;;;;;;;;;;;;;;;24.13;21.93;100219.00;5060682;28;1112;-26
2023/02/04 06:28:19;;;;;;;;;;;;;;;25.07;20.46;100211.84;5063483;28;1113;-26
2023/02/04 06:30:44;;;;;;;;;;;;;;;24.60;20.58;100210.19;5079397;28;1070;-26
2023/02/04 06:33:10;;;;;;;;;;;;;;;25.15;20.42;100207.41;5080282;28;1103;-28
2023/02/04 06:35:35;;;;;;;;;;;;;;;26.13;19.40;100214.56;5079722;28;1098;-26
2023/02/04 06:38:00;;;;;;;;;;;;;;;26.46;19.39;100210.59;5079566;28;1126;-27
2023/02/04 06:40:25;;;;;;;;;;;;;;;26.67;19.11;100206.25;5079895;28;1201;-27
2023/02/04 06:42:51;;;;;;;;;;;;;;;26.87;18.91;100205.56;5069400;28;1898;-27
2023/02/04 06:45:16;;;;;;;;;;;;;;;26.89;19.18;100198.94;5069202;28;1607;-26
2023/02/04 06:47:41;;;;;;;;;;;;;;;26.98;19.20;100210.44;5075841;28;1084;-28
2023/02/04 06:50:07;;;;;;;;;;;;;;;26.99;19.19;100203.19;5078941;28;940;-27
2023/02/04 06:52:32;;;;;;;;;;;;;;;27.13;18.69;100202.28;5079549;28;1040;-24
2023/02/04 06:54:57;;;;;;;;;;;;;;;27.26;18.66;100203.38;5079590;28;1110;-28
2023/02/04 06:57:23;;;;;;;;;;;;;;;27.51;18.62;100198.34;5065945;28;1050;-28
2023/02/04 06:59:48;;;;;;;;;;;;;;;27.69;18.40;100202.44;5079756;28;1088;-28
2023/02/04 07:02:14;;;;;;;;;;;;;;;27.63;18.60;100195.09;5078723;28;1383;-27
2023/02/04 07:05:00;;;;;;;;;;;;;;;27.59;18.93;100197.34;5102487;27;1438;-25
2023/02/04 07:07:25;;;;;;;;;;;;;;;27.86;18.58;100200.22;5093279;28;1039;-28
2023/02/04 07:09:50;;;;;;;;;;;;;;;28.05;18.38;100189.69;5093671;28;1113;-23
2023/02/04 07:12:16;;;;;;;;;;;;;;;28.19;18.53;100189.72;5093623;28;1039;-27
2023/02/04 07:14:41;;;;;;;;;;;;;;;28.20;18.35;100197.63;5093924;28;1157;-26
2023/02/04 07:17:06;;;;;;;;;;;;;;;28.35;18.31;100199.34;5093528;28;1060;-23
2023/02/04 07:19:32;;;;;;;;;;;;;;;28.56;18.24;100190.22;5093430;28;1163;-23
2023/02/04 07:21:57;;;;;;;;;;;;;;;28.62;18.01;100191.28;5093482;28;1079;-24
2023/02/04 07:24:23;;;;;;;;;;;;;;;28.68;18.31;100190.44;5093427;28;1973;-23
2023/02/04 07:26:48;;;;;;;;;;;;;;;28.73;18.07;100182.53;5093079;28;1055;-25
2023/02/04 07:29:13;;;;;;;;;;;;;;;28.87;17.87;100174.44;5093374;28;1127;-27
2023/02/04 07:31:39;;;;;;;;;;;;;;;28.87;18.04;100173.59;5092857;28;1023;-27
2023/02/04 07:34:04;;;;;;;;;;;;;;;28.92;17.87;100174.63;5092787;28;1153;-27
2023/02/04 07:36:29;;;;;;;;;;;;;;;28.98;18.05;100181.09;5093121;28;1040;-28
2023/02/04 07:38:54;;;;;;;;;;;;;;;28.51;18.46;100173.78;5093109;28;1130;-27
2023/02/04 07:41:20;;;;;;;;;;;;;;;28.63;18.60;100171.28;5093168;28;1164;-28
2023/02/04 07:43:45;;;;;;;;;;;;;;;28.51;18.81;100172.97;5092557;28;1905;-26
2023/02/04 07:46:11;;;;;;;;;;;;;;;28.33;19.01;100177.94;5093017;28;1080;-28
2023/02/04 07:48:36;;;;;;;;;;;;;;;28.67;18.56;100175.28;5092652;28;1070;-28
2023/02/04 07:51:01;;;;;;;;;;;;;;;28.62;18.52;100172.34;5092930;28;1143;-26
2023/02/04 07:53:27;;;;;;;;;;;;;;;28.53;18.95;100168.19;5092541;28;1095;-26
2023/02/04 07:55:52;;;;;;;;;;;;;;;28.67;18.88;100167.16;5092735;28;1138;-28
2023/02/04 07:58:17;;;;;;;;;;;;;;;25.93;21.40;100149.66;5092303;28;1036;-26
2023/02/04 08:00:42;;;;;;;;;;;;;;;25.64;21.80;100165.66;5092939;28;1127;-26
2023/02/04 08:03:08;;;;;;;;;;;;;;;27.55;20.22;100160.13;5093050;28;1914;-28
2023/02/04 08:05:33;;;;;;;;;;;;;;;27.84;19.88;100167.16;5092660;28;1146;-27
2023/02/04 08:08:00;;;;;;;;;;;;;;;27.76;19.60;100161.91;5084489;28;1078;-27
2023/02/04 08:10:26;;;;;;;;;;;;;;;27.78;19.99;100167.16;5091356;28;952;-27
2023/02/04 08:12:51;;;;;;;;;;;;;;;27.71;20.07;100162.53;5092239;28;1219;-26
2023/02/04 08:15:16;;;;;;;;;;;;;;;27.76;19.96;100159.22;5085163;28;1115;-26
2023/02/04 08:17:42;;;;;;;;;;;;;;;28.11;19.71;100158.31;5079022;28;1126;-30
2023/02/04 08:20:08;;;;;;;;;;;;;;;28.21;19.26;100155.22;5078854;28;1221;-28
2023/02/04 08:22:34;;;;;;;;;;;;;;;28.18;19.61;100148.31;5078503;28;1905;-27
2023/02/04 08:24:59;;;;;;;;;;;;;;;28.41;19.07;100155.25;5078402;28;1121;-27
2023/02/04 08:27:24;;;;;;;;;;;;;;;28.33;19.26;100155.44;5078436;28;910;-27
2023/02/04 08:29:50;;;;;;;;;;;;;;;28.33;18.93;100156.28;5078251;28;1032;-28
2023/02/04 08:32:15;;;;;;;;;;;;;;;28.35;19.27;100153.38;5078474;28;1178;-28
2023/02/04 08:34:40;;;;;;;;;;;;;;;28.39;19.20;100154.66;5078421;28;1082;-27
2023/02/04 08:37:05;;;;;;;;;;;;;;;28.56;18.71;100152.34;5078580;28;1091;-26
2023/02/04 08:39:31;;;;;;;;;;;;;;;28.60;18.67;100148.19;5078115;28;1103;-27
2023/02/04 08:41:57;;;;;;;;;;;;;;;28.75;18.53;100154.44;5078626;28;1043;-26
2023/02/04 08:44:22;;;;;;;;;;;;;;;28.68;18.56;100146.31;5077392;28;1894;-25
2023/02/04 08:46:47;;;;;;;;;;;;;;;28.39;18.91;100148.41;5077185;28;1599;-27
2023/02/04 08:49:13;;;;;;;;;;;;;;;25.91;21.36;100143.59;5072599;28;1012;-29
2023/02/04 08:51:38;;;;;;;;;;;;;;;26.07;21.72;100142.56;5078000;28;1134;-29
2023/02/04 08:54:03;;;;;;;;;;;;;;;27.57;20.28;100141.88;5075016;28;1044;-27
2023/02/04 08:56:30;;;;;;;;;;;;;;;27.85;20.05;100143.66;5077776;28;840;-29
2023/02/04 08:58:55;;;;;;;;;;;;;;;27.89;20.00;100144.09;5078174;28;1096;-26
2023/02/04 09:01:20;;;;;;;;;;;;;;;27.87;19.99;100147.00;5078208;28;1134;-26
2023/02/04 09:03:45;;;;;;;;;;;;;;;28.03;19.96;100143.09;5070436;28;1907;-31
2023/02/04 09:06:11;;;;;;;;;;;;;;;28.70;19.18;100146.94;5077941;28;1066;-26
2023/02/04 09:08:36;;;;;;;;;;;;;;;29.14;18.51;100149.22;5077456;28;1028;-26
2023/02/04 09:11:02;;;;;;;;;;;;;;;29.51;18.44;100143.28;5077817;28;1107;-26
2023/02/04 09:13:27;;;;;;;;;;;;;;;30.13;17.84;100134.66;5072015;28;1227;-27
2023/02/04 09:15:52;;;;;;;;;;;;;;;30.64;17.44;100132.03;5077164;28;934;-29
2023/02/04 09:18:20;;;;;;;;;;;;;;;31.14;16.96;100134.91;5076841;28;1067;-27
2023/02/04 09:20:46;;;;;;;;;;;;;;;31.53;16.48;100132.00;5070257;28;1198;-30
2023/02/04 09:23:13;;;;;;;;;;;;;;;31.61;16.32;100133.56;5071858;28;1897;-30
2023/02/04 09:25:38;;;;;;;;;;;;;;;31.81;16.15;100129.75;5074520;28;1352;-27
2023/02/04 09:28:04;;;;;;;;;;;;;;;32.05;16.03;100125.22;5070771;28;1032;-27
2023/02/04 09:30:29;;;;;;;;;;;;;;;32.23;15.80;100118.88;5077386;28;1127;-27
2023/02/04 09:32:55;;;;;;;;;;;;;;;32.43;16.00;100112.28;5077281;28;1071;-25
2023/02/04 09:35:20;;;;;;;;;;;;;;;32.67;15.44;100106.91;5059720;28;1136;-25
2023/02/04 09:37:45;;;;;;;;;;;;;;;32.86;15.63;100113.06;5077281;28;1151;-26
2023/02/04 09:40:15;;;;;;;;;;;;;;;32.87;15.67;100097.53;5077034;28;1126;-26
2023/02/04 09:42:41;;;;;;;;;;;;;;;33.05;15.50;100101.19;5077198;28;1890;-27
2023/02/04 09:45:08;;;;;;;;;;;;;;;33.23;15.20;100103.78;5076539;28;873;-26
2023/02/04 09:47:33;;;;;;;;;;;;;;;32.77;15.48;100097.28;5058704;28;1087;-30
2023/02/04 09:49:58;;;;;;;;;;;;;;;32.28;16.12;100090.16;5077544;28;1086;-25
2023/02/04 09:52:24;;;;;;;;;;;;;;;32.42;15.94;100085.31;5076985;28;1515;-26
2023/02/04 09:54:49;;;;;;;;;;;;;;;32.60;15.71;100087.13;5077037;28;1091;-26
2023/02/04 09:57:16;;;;;;;;;;;;;;;32.59;15.76;100082.75;5058209;28;1071;-28
2023/02/04 09:59:41;;;;;;;;;;;;;;;32.60;16.18;100078.94;5077023;28;1167;-29
2023/02/04 10:02:11;;;;;;;;;;;;;;;32.89;16.03;100076.34;5059261;28;1107;-25
2023/02/04 10:04:37;;;;;;;;;;;;;;;32.64;16.05;100073.84;5058378;28;1974;-26
2023/02/04 10:07:02;;;;;;;;;;;;;;;32.81;16.20;100066.63;5058855;28;1009;-26
2023/02/04 10:09:28;;;;;;;;;;;;;;;33.15;15.42;100070.63;5058533;28;897;-27
2023/02/04 10:11:53;;;;;;;;;;;;;;;33.15;14.91;100067.91;5076639;28;1107;-27
2023/02/04 10:14:18;;;;;;;;;;;;;;;34.07;13.84;100070.69;5076879;28;1064;-27
2023/02/04 10:16:46;;;;;;;;;;;;;;;33.58;13.62;100063.81;5045551;28;1143;-31
2023/02/04 10:19:13;;;;;;;;;;;;;;;33.50;13.78;100063.41;5076637;28;1139;-28
2023/02/04 10:21:39;;;;;;;;;;;;;;;34.22;12.93;100060.34;5076498;28;1123;-27
2023/02/04 10:24:06;;;;;;;;;;;;;;;34.26;12.89;100048.66;5076309;28;1964;-26
2023/02/04 10:26:31;;;;;;;;;;;;;;;34.31;12.84;100048.75;5058162;28;1040;-28
2023/02/04 10:29:00;;;;;;;;;;;;;;;34.29;12.52;100047.31;5076375;28;1003;-29
2023/02/04 10:31:29;;;;;;;;;;;;;;;34.31;12.46;100040.56;5076343;28;1048;-28
2023/02/04 10:34:01;;;;;;;;;;;;;;;34.41;12.25;100042.59;5075739;28;960;-27
2023/02/04 10:36:27;;;;;;;;;;;;;;;34.48;11.90;100036.97;5075805;28;1122;-27
2023/02/04 10:39:12;;;;;;;;;;;;;;;34.45;11.93;100043.75;5075989;28;1190;-26
2023/02/04 10:41:38;;;;;;;;;;;;;;;34.61;11.75;100034.94;5076068;28;1167;-28
2023/02/04 10:44:10;;;;;;;;;;;;;;;34.61;11.89;100029.47;5058667;28;1909;-28
2023/02/04 10:46:36;;;;;;;;;;;;;;;34.50;12.06;100029.31;5075525;28;877;-29
2023/02/04 10:49:04;;;;;;;;;;;;;;;34.62;11.92;100036.63;5076149;28;1230;-27
2023/02/04 10:51:29;;;;;;;;;;;;;;;34.63;11.48;100028.16;5071666;28;1381;-28
2023/02/04 10:56:39;;;;;;;;;;;;;;;34.58;11.83;100033.56;5075580;28;1135;-32
2023/02/04 10:59:04;;;;;;;;;;;;;;;34.76;11.41;100024.25;5075533;28;1051;-29
2023/02/04 11:01:29;;;;;;;;;;;;;;;34.76;11.58;100021.53;5075794;28;1187;-28
2023/02/04 11:03:54;;;;;;;;;;;;;;;34.74;11.35;100018.22;5057905;28;2051;-27
2023/02/04 11:06:20;;;;;;;;;;;;;;;34.64;11.59;100018.88;5075487;28;1229;-31
2023/02/04 11:08:46;;;;;;;;;;;;;;;34.69;11.30;100018.13;5055835;28;1155;-29
2023/02/04 11:11:15;;;;;;;;;;;;;;;34.66;11.24;100008.53;5065241;28;1059;-28
2023/02/04 11:13:44;;;;;;;;;;;;;;;34.73;11.55;100008.38;5057998;28;1044;-28
2023/02/04 11:16:09;;;;;;;;;;;;;;;34.68;11.53;100000.88;5075920;28;1166;-27
2023/02/04 11:18:44;;;;;;;;;;;;;;;34.67;11.59;100006.59;5075370;28;1162;-30
2023/02/04 11:21:13;;;;;;;;;;;;;;;34.81;11.14;100007.09;5075819;28;1198;-28
2023/02/04 11:23:38;;;;;;;;;;;;;;;34.84;11.38;100008.47;5075463;28;1901;-28
2023/02/04 11:26:07;;;;;;;;;;;;;;;34.81;11.23;100010.66;5075437;28;1557;-29
2023/02/04 11:28:39;;;;;;;;;;;;;;;34.77;11.07;100012.25;5075302;28;1101;-27
2023/02/04 11:31:11;;;;;;;;;;;;;;;34.77;11.39;100006.78;5075405;28;1130;-30
2023/02/04 11:33:37;;;;;;;;;;;;;;;34.44;11.79;100006.59;5063103;28;880;-27
2023/02/04 11:36:03;;;;;;;;;;;;;;;34.75;11.98;99997.19;5075411;28;1083;-26
2023/02/04 11:38:29;;;;;;;;;;;;;;;34.84;12.42;100000.28;5073930;28;1052;-27
2023/02/04 11:40:55;;;;;;;;;;;;;;;34.74;12.76;100001.81;5075414;28;1028;-27
2023/02/04 11:43:20;;;;;;;;;;;;;;;34.83;13.03;100001.38;5075685;28;1969;-29
2023/02/04 11:45:45;;;;;;;;;;;;;;;34.78;12.97;99999.41;5075249;28;1098;-27
2023/02/04 11:48:13;;;;;;;;;;;;;;;34.75;12.88;99992.53;5075347;28;1221;-27
2023/02/04 11:50:40;;;;;;;;;;;;;;;31.60;15.75;99985.09;5077564;28;1139;-30
2023/02/04 11:53:05;;;;;;;;;;;;;;;30.34;17.13;99986.16;5079221;28;1163;-29
2023/02/04 11:55:31;;;;;;;;;;;;;;;29.66;17.86;99981.25;5061214;28;1279;-29
2023/02/04 11:57:56;;;;;;;;;;;;;;;30.64;17.18;99977.28;5061121;28;1509;-26
2023/02/04 12:00:31;;;;;;;;;;;;;;;31.48;16.21;99985.88;5078966;28;1098;-26
2023/02/04 12:02:58;;;;;;;;;;;;;;;31.18;16.69;99992.13;5078752;28;1918;-29
2023/02/04 12:05:34;;;;;;;;;;;;;;;31.48;16.26;99977.72;5079262;28;1162;-28
2023/02/04 12:08:07;;;;;;;;;;;;;;;31.51;16.36;99976.44;5078861;28;1131;-26
2023/02/04 12:10:33;;;;;;;;;;;;;;;31.46;16.43;99979.88;5078356;28;1042;-30
2023/02/04 12:12:58;;;;;;;;;;;;;;;31.37;16.56;99978.50;5079001;28;1130;-27
2023/02/04 12:15:36;;;;;;;;;;;;;;;31.42;16.42;99967.78;5079239;28;1167;-27
2023/02/04 12:18:08;;;;;;;;;;;;;;;31.38;16.68;99975.53;5078874;28;1101;-29
2023/02/04 12:20:34;;;;;;;;;;;;;;;31.29;16.73;99979.66;5078887;28;1164;-27
2023/02/04 12:22:59;;;;;;;;;;;;;;;31.34;16.68;99982.50;5078144;28;1906;-29
2023/02/04 12:25:25;;;;;;;;;;;;;;;31.30;16.85;99981.31;5078270;28;1036;-26
2023/02/04 12:27:53;;;;;;;;;;;;;;;31.36;16.72;99969.53;5078834;28;1116;-26
2023/02/04 12:30:19;;;;;;;;;;;;;;;31.34;16.98;99979.78;5065408;28;1020;-27
2023/02/04 12:32:44;;;;;;;;;;;;;;;31.30;17.01;99983.22;5079027;28;1136;-27
2023/02/04 12:35:10;;;;;;;;;;;;;;;31.26;17.06;99980.13;5078304;28;853;-29
2023/02/04 12:37:35;;;;;;;;;;;;;;;31.27;16.99;99982.59;5078253;28;1127;-25
2023/02/04 12:40:00;;;;;;;;;;;;;;;31.25;17.19;99983.88;5078269;28;1042;-25
2023/02/04 12:42:25;;;;;;;;;;;;;;;31.19;17.19;99987.53;5078206;28;1152;-30
2023/02/04 12:44:51;;;;;;;;;;;;;;;31.15;17.02;99990.69;5078091;28;1963;-28